Time;durP1;ratioP1;P1;durP2;ratioP2;P2;SDS_P1;SDS_P2;PMS_P1;PMS_P2;Temp;Humidity;BMP_temperature;BMP_pressure;BME280_temperature;BME280_humidity;BME280_pressure;Samples;Min_cycle;Max_cycle;Signal;HPM_P1;HPM_P2
2021/10/11 00:02:02;;;;;;;2.20;1.20;;;22.40;52.20;;;;;;4983407;28;20045;-55
2021/10/11 00:04:28;;;;;;;2.65;1.30;;;22.30;52.20;;;;;;4979263;28;20034;-52
2021/10/11 00:06:53;;;;;;;2.10;1.30;;;22.30;52.20;;;;;;4977251;28;20822;-50
2021/10/11 00:09:19;;;;;;;1.80;1.40;;;22.40;52.30;;;;;;4985070;28;20552;-58
2021/10/11 00:11:44;;;;;;;2.25;1.40;;;22.30;52.80;;;;;;4987073;28;20041;-57
2021/10/11 00:14:10;;;;;;;2.08;1.35;;;22.30;52.30;;;;;;4983608;28;20061;-58
2021/10/11 00:16:35;;;;;;;2.47;1.42;;;22.30;52.30;;;;;;4986154;28;20068;-55
2021/10/11 00:19:04;;;;;;;2.40;1.50;;;22.30;52.30;;;;;;4983418;28;20018;-58
2021/10/11 00:21:29;;;;;;;2.45;1.40;;;22.30;52.30;;;;;;4982202;28;20084;-59
2021/10/11 00:23:55;;;;;;;2.08;1.33;;;22.20;52.30;;;;;;4985201;28;20394;-53
2021/10/11 00:26:20;;;;;;;2.03;1.27;;;22.30;52.30;;;;;;4985885;28;20138;-57
2021/10/11 00:28:46;;;;;;;2.47;1.30;;;22.20;52.30;;;;;;4983714;28;20504;-56
2021/10/11 00:31:12;;;;;;;3.00;1.40;;;22.20;52.30;;;;;;4981650;28;20050;-57
2021/10/11 00:33:38;;;;;;;2.00;1.33;;;22.20;52.30;;;;;;4983996;28;20498;-59
2021/10/11 00:36:04;;;;;;;1.90;1.35;;;22.20;52.30;;;;;;4984959;28;20137;-58
2021/10/11 00:38:30;;;;;;;2.33;1.40;;;22.20;52.30;;;;;;4983247;28;20038;-59
2021/10/11 00:40:56;;;;;;;2.17;1.50;;;22.20;52.30;;;;;;4986453;28;20033;-58
2021/10/11 00:43:21;;;;;;;2.40;1.50;;;22.20;52.30;;;;;;4987095;28;20037;-56
2021/10/11 00:45:47;;;;;;;2.30;1.20;;;22.10;52.30;;;;;;4989091;28;20117;-56
2021/10/11 00:48:12;;;;;;;2.30;1.30;;;22.10;52.30;;;;;;4987541;28;20030;-54
2021/10/11 00:50:38;;;;;;;1.75;1.20;;;22.10;52.30;;;;;;4984916;28;20523;-55
2021/10/11 00:53:04;;;;;;;1.70;1.25;;;22.10;52.30;;;;;;4985150;28;20045;-56
2021/10/11 00:55:30;;;;;;;2.17;1.13;;;22.10;52.30;;;;;;4984963;28;20018;-55
2021/10/11 00:57:55;;;;;;;1.92;1.30;;;22.10;52.90;;;;;;4987253;28;20096;-57
2021/10/11 01:00:21;;;;;;;1.83;1.30;;;22.10;52.40;;;;;;4986243;28;20027;-58
2021/10/11 01:02:46;;;;;;;2.15;1.30;;;22.10;52.90;;;;;;4978304;28;20489;-55
2021/10/11 01:05:12;;;;;;;2.00;1.30;;;22.10;52.40;;;;;;4987008;28;20457;-58
2021/10/11 01:07:38;;;;;;;2.22;1.30;;;22.10;52.40;;;;;;4987076;28;20034;-57
2021/10/11 01:10:04;;;;;;;2.13;1.30;;;22.00;52.30;;;;;;4987446;28;20030;-57
2021/10/11 01:12:30;;;;;;;1.77;1.40;;;22.00;52.90;;;;;;4986589;28;20036;-57
2021/10/11 01:14:56;;;;;;;1.92;1.30;;;22.00;52.40;;;;;;4987765;28;20159;-54
2021/10/11 01:17:22;;;;;;;1.42;1.05;;;22.00;52.40;;;;;;4986479;28;20133;-58
2021/10/11 01:19:49;;;;;;;2.20;1.40;;;21.90;52.40;;;;;;4988088;28;20117;-59
2021/10/11 01:22:16;;;;;;;2.22;1.42;;;22.00;52.50;;;;;;4985074;28;20034;-59
2021/10/11 01:24:41;;;;;;;1.65;1.20;;;21.90;52.40;;;;;;4982580;28;20774;-59
2021/10/11 01:27:07;;;;;;;2.47;1.20;;;21.90;52.40;;;;;;4987690;28;20041;-59
2021/10/11 01:29:32;;;;;;;1.60;1.10;;;21.90;52.40;;;;;;4988785;28;20030;-59
2021/10/11 01:31:58;;;;;;;2.05;1.20;;;21.90;52.50;;;;;;4984380;28;20402;-51
2021/10/11 01:34:23;;;;;;;2.10;1.20;;;21.90;52.50;;;;;;4995427;28;20118;-52
2021/10/11 01:36:49;;;;;;;1.60;1.20;;;21.90;52.50;;;;;;4985528;28;20110;-53
2021/10/11 01:39:15;;;;;;;1.67;1.13;;;21.90;52.50;;;;;;4983621;28;20054;-57
2021/10/11 01:41:40;;;;;;;1.77;1.10;;;21.90;52.50;;;;;;4984656;28;20045;-59
2021/10/11 01:44:06;;;;;;;1.65;1.20;;;21.80;52.40;;;;;;4984247;28;20026;-58
2021/10/11 01:46:33;;;;;;;1.70;1.13;;;21.80;52.40;;;;;;4986742;28;20375;-57
2021/10/11 01:48:59;;;;;;;1.67;1.13;;;21.80;52.50;;;;;;4984326;28;20050;-57
2021/10/11 01:51:24;;;;;;;1.85;1.27;;;21.80;52.50;;;;;;4985065;28;20080;-59
2021/10/11 01:53:50;;;;;;;1.98;1.20;;;21.80;52.50;;;;;;4985719;28;20030;-57
2021/10/11 01:56:17;;;;;;;1.92;1.40;;;21.80;52.50;;;;;;4993042;28;20034;-57
2021/10/11 01:58:42;;;;;;;1.77;1.17;;;21.80;52.50;;;;;;4987414;28;20029;-57
2021/10/11 02:01:08;;;;;;;1.80;1.23;;;21.80;52.50;;;;;;4984788;28;20470;-56
2021/10/11 02:03:34;;;;;;;2.22;1.35;;;21.80;52.50;;;;;;4981712;28;20046;-58
2021/10/11 02:05:59;;;;;;;2.10;1.30;;;21.80;52.50;;;;;;4985558;28;20026;-49
2021/10/11 02:08:25;;;;;;;1.73;1.10;;;21.80;52.50;;;;;;4982593;28;20088;-54
2021/10/11 02:10:50;;;;;;;1.95;1.27;;;21.70;52.50;;;;;;4987789;28;20039;-57
2021/10/11 02:13:16;;;;;;;1.65;1.15;;;21.70;52.50;;;;;;4980778;28;20031;-58
2021/10/11 02:15:42;;;;;;;2.13;1.20;;;21.70;52.50;;;;;;4987917;28;20104;-59
2021/10/11 02:18:07;;;;;;;1.40;1.20;;;21.70;52.50;;;;;;4986879;28;20084;-58
2021/10/11 02:20:33;;;;;;;1.70;1.13;;;21.70;52.50;;;;;;4985153;28;20054;-59
2021/10/11 02:22:59;;;;;;;1.58;1.20;;;21.70;52.50;;;;;;4984965;28;20046;-56
2021/10/11 02:25:24;;;;;;;2.55;1.15;;;21.70;52.50;;;;;;4986942;28;20034;-59
2021/10/11 02:27:50;;;;;;;2.00;1.13;;;21.70;52.50;;;;;;4982897;28;20068;-53
2021/10/11 02:30:16;;;;;;;1.90;1.20;;;21.70;52.50;;;;;;4985320;28;20121;-57
2021/10/11 02:32:41;;;;;;;2.05;1.20;;;21.70;53.00;;;;;;4987151;28;20034;-59
2021/10/11 02:35:08;;;;;;;1.73;1.10;;;21.60;52.50;;;;;;4976251;28;20102;-55
2021/10/11 02:37:34;;;;;;;1.63;1.15;;;21.60;52.50;;;;;;4985299;28;20104;-58
2021/10/11 02:39:59;;;;;;;1.73;1.20;;;21.60;53.00;;;;;;4987458;28;20034;-59
2021/10/11 02:42:25;;;;;;;1.73;1.10;;;21.60;52.50;;;;;;4989180;28;20026;-52
2021/10/11 02:44:51;;;;;;;2.15;1.20;;;21.60;52.50;;;;;;4985474;28;20109;-59
2021/10/11 02:47:17;;;;;;;1.88;1.23;;;21.60;52.50;;;;;;4989438;28;20065;-52
2021/10/11 02:49:42;;;;;;;1.67;1.10;;;21.60;52.50;;;;;;4989894;28;20077;-51
2021/10/11 02:52:08;;;;;;;1.73;1.20;;;21.60;52.60;;;;;;4988072;28;20023;-59
2021/10/11 02:54:34;;;;;;;1.40;1.10;;;21.60;52.50;;;;;;4989995;28;20120;-58
2021/10/11 02:57:00;;;;;;;1.70;1.20;;;21.60;52.50;;;;;;4991230;28;20061;-59
2021/10/11 02:59:26;;;;;;;2.03;1.20;;;21.60;52.50;;;;;;4989950;28;20069;-58
2021/10/11 03:01:51;;;;;;;1.75;1.15;;;21.50;52.50;;;;;;4980880;28;20055;-59
2021/10/11 03:04:17;;;;;;;1.70;1.00;;;21.50;52.50;;;;;;4987211;28;20177;-55
2021/10/11 03:06:43;;;;;;;1.38;1.00;;;21.50;52.50;;;;;;4984260;28;20426;-57
2021/10/11 03:09:09;;;;;;;1.88;1.13;;;21.50;52.50;;;;;;4990167;28;20124;-57
2021/10/11 03:11:34;;;;;;;1.45;1.02;;;21.50;52.50;;;;;;4988660;28;20018;-52
2021/10/11 03:14:00;;;;;;;1.58;1.15;;;21.50;52.50;;;;;;4985611;28;20130;-58
2021/10/11 03:16:26;;;;;;;1.48;1.10;;;21.50;52.60;;;;;;4983936;28;20041;-59
2021/10/11 03:18:52;;;;;;;1.50;1.10;;;21.50;52.60;;;;;;4985431;28;20026;-55
2021/10/11 03:21:18;;;;;;;1.30;1.00;;;21.50;52.60;;;;;;4979421;28;20049;-57
2021/10/11 03:23:51;;;;;;;2.05;1.05;;;21.50;52.60;;;;;;4989988;28;20378;-59
2021/10/11 03:26:18;;;;;;;1.45;1.02;;;21.40;52.50;;;;;;4989337;28;20573;-51
2021/10/11 03:28:44;;;;;;;1.83;1.30;;;21.50;52.60;;;;;;4989948;28;20034;-58
2021/10/11 03:31:10;;;;;;;1.40;1.00;;;21.40;52.60;;;;;;4987995;28;20038;-53
2021/10/11 03:33:35;;;;;;;1.40;1.00;;;21.40;52.50;;;;;;4985793;28;20120;-50
2021/10/11 03:36:01;;;;;;;1.65;1.20;;;21.40;52.50;;;;;;4986842;28;20105;-53
2021/10/11 03:38:27;;;;;;;1.42;1.00;;;21.50;52.60;;;;;;4983761;28;20041;-58
2021/10/11 03:40:53;;;;;;;1.42;1.00;;;21.40;52.50;;;;;;4990514;28;20034;-56
2021/10/11 03:43:18;;;;;;;1.40;1.00;;;21.40;52.50;;;;;;4990038;28;20466;-54
2021/10/11 03:45:44;;;;;;;1.50;1.00;;;21.40;52.50;;;;;;4983755;28;20038;-52
2021/10/11 03:48:09;;;;;;;1.27;0.90;;;21.40;52.50;;;;;;4986744;28;20027;-52
2021/10/11 03:50:35;;;;;;;1.50;1.10;;;21.40;52.60;;;;;;4974999;28;20614;-59
2021/10/11 03:53:01;;;;;;;1.73;1.10;;;21.40;52.60;;;;;;4984802;28;20118;-59
2021/10/11 03:55:26;;;;;;;1.60;1.10;;;21.40;52.60;;;;;;4988586;28;20461;-57
2021/10/11 03:57:52;;;;;;;1.42;1.00;;;21.40;52.60;;;;;;4987325;28;20509;-55
2021/10/11 04:00:18;;;;;;;1.25;1.00;;;21.30;52.50;;;;;;4987162;28;20030;-57
2021/10/11 04:02:43;;;;;;;1.35;1.05;;;21.30;52.50;;;;;;4984846;28;20137;-54
2021/10/11 04:05:10;;;;;;;1.20;0.90;;;21.40;52.60;;;;;;4985605;28;20026;-58
2021/10/11 04:07:38;;;;;;;1.40;1.10;;;21.40;52.60;;;;;;4985595;28;20040;-54
2021/10/11 04:10:06;;;;;;;1.60;1.10;;;21.30;52.60;;;;;;4988095;28;20028;-59
2021/10/11 04:12:35;;;;;;;1.20;1.00;;;21.30;52.60;;;;;;4983457;28;20685;-53
2021/10/11 04:15:04;;;;;;;1.75;1.00;;;21.30;52.60;;;;;;4992912;28;20013;-55
2021/10/11 04:17:30;;;;;;;1.30;0.98;;;21.30;52.60;;;;;;4986882;28;20784;-59
2021/10/11 04:19:55;;;;;;;1.10;0.90;;;21.30;52.60;;;;;;4986022;28;20184;-55
2021/10/11 04:22:21;;;;;;;1.27;0.90;;;21.30;52.60;;;;;;4985252;28;20030;-56
2021/10/11 04:24:47;;;;;;;1.52;1.00;;;21.30;52.60;;;;;;4986949;28;20105;-59
2021/10/11 04:27:12;;;;;;;1.92;1.00;;;21.30;52.60;;;;;;4984177;28;20477;-54
2021/10/11 04:29:38;;;;;;;1.10;0.93;;;21.30;52.60;;;;;;4979019;28;20102;-59
2021/10/11 04:32:05;;;;;;;1.08;0.90;;;21.30;52.60;;;;;;4988260;28;20262;-54
2021/10/11 04:34:31;;;;;;;1.33;1.00;;;21.20;52.60;;;;;;4985913;28;20030;-51
2021/10/11 04:36:56;;;;;;;1.10;0.90;;;21.20;52.60;;;;;;4985263;28;20038;-58
2021/10/11 04:39:22;;;;;;;1.20;1.00;;;21.20;52.60;;;;;;5000956;28;20080;-58
2021/10/11 04:41:48;;;;;;;1.30;1.00;;;21.20;52.60;;;;;;4988115;28;20058;-55
2021/10/11 04:44:13;;;;;;;1.55;1.10;;;21.20;52.80;;;;;;4985213;28;20047;-53
2021/10/11 04:46:39;;;;;;;1.45;1.00;;;21.20;52.60;;;;;;4985981;28;20037;-58
2021/10/11 04:49:04;;;;;;;1.83;0.98;;;21.20;52.60;;;;;;4988321;28;20382;-55
2021/10/11 04:51:30;;;;;;;1.63;1.10;;;21.20;52.60;;;;;;4985053;28;20050;-56
2021/10/11 04:53:56;;;;;;;1.30;0.95;;;21.20;52.60;;;;;;4985733;28;20129;-53
2021/10/11 04:56:21;;;;;;;1.15;0.90;;;21.20;52.60;;;;;;4981158;28;20443;-57
2021/10/11 04:58:47;;;;;;;1.45;1.00;;;21.20;52.70;;;;;;4987219;28;20049;-57
2021/10/11 05:01:13;;;;;;;1.20;0.90;;;21.20;52.60;;;;;;4983802;28;20053;-58
2021/10/11 05:03:38;;;;;;;1.15;0.88;;;21.20;52.60;;;;;;4988560;28;20482;-57
2021/10/11 05:06:04;;;;;;;1.50;1.00;;;21.10;52.50;;;;;;4985766;28;20084;-54
2021/10/11 05:08:30;;;;;;;1.60;0.90;;;21.10;52.50;;;;;;4986150;28;20027;-57
2021/10/11 05:10:56;;;;;;;1.02;0.82;;;21.10;52.50;;;;;;4984565;28;20038;-55
2021/10/11 05:13:22;;;;;;;1.00;0.80;;;21.10;52.50;;;;;;4984560;28;20030;-52
2021/10/11 05:15:48;;;;;;;1.60;1.10;;;21.10;52.60;;;;;;4984605;28;20553;-59
2021/10/11 05:18:14;;;;;;;1.35;0.90;;;21.10;52.60;;;;;;4988231;28;20029;-52
2021/10/11 05:20:46;;;;;;;0.90;0.80;;;21.10;52.50;;;;;;4985317;28;20073;-57
2021/10/11 05:23:12;;;;;;;1.50;1.05;;;21.10;52.60;;;;;;4979736;28;20088;-56
2021/10/11 05:25:37;;;;;;;1.50;1.05;;;21.10;52.60;;;;;;4985682;28;20069;-55
2021/10/11 05:28:03;;;;;;;1.45;0.93;;;21.10;52.60;;;;;;4983081;28;20590;-59
2021/10/11 05:30:29;;;;;;;1.45;0.90;;;21.10;52.60;;;;;;4982299;28;20022;-59
2021/10/11 05:32:55;;;;;;;1.40;1.08;;;21.10;52.60;;;;;;4988016;28;20059;-48
2021/10/11 05:35:20;;;;;;;1.40;1.00;;;21.00;52.50;;;;;;4986887;28;20034;-57
2021/10/11 05:37:46;;;;;;;2.22;1.10;;;21.00;52.60;;;;;;4986318;28;20427;-58
2021/10/11 05:40:12;;;;;;;1.42;1.00;;;21.00;52.50;;;;;;4985631;28;20042;-59
2021/10/11 05:42:37;;;;;;;1.60;1.10;;;21.10;52.60;;;;;;4987268;28;20045;-57
2021/10/11 05:45:03;;;;;;;1.40;1.00;;;21.00;52.50;;;;;;4985572;28;20030;-55
2021/10/11 05:47:29;;;;;;;1.40;0.95;;;21.00;52.50;;;;;;4979309;28;20031;-55
2021/10/11 05:49:55;;;;;;;1.23;0.88;;;21.00;52.50;;;;;;4989182;28;20465;-59
2021/10/11 05:52:21;;;;;;;1.60;1.10;;;21.00;52.60;;;;;;4975272;28;20022;-59
2021/10/11 05:54:46;;;;;;;1.27;0.95;;;21.00;52.60;;;;;;4983847;28;20108;-60
2021/10/11 05:57:12;;;;;;;1.08;0.88;;;21.00;52.60;;;;;;4989987;28;20121;-56
2021/10/11 05:59:37;;;;;;;2.03;1.25;;;21.00;52.60;;;;;;4972783;28;20041;-59
2021/10/11 06:02:03;;;;;;;1.92;1.40;;;21.00;52.70;;;;;;4976956;28;20070;-58
2021/10/11 06:04:29;;;;;;;1.92;1.40;;;21.10;52.50;;;;;;4996911;28;20458;-56
2021/10/11 06:06:54;;;;;;;2.75;1.60;;;21.20;52.30;;;;;;4978677;28;20176;-58
2021/10/11 06:09:20;;;;;;;2.33;1.50;;;21.30;52.10;;;;;;4982110;28;20023;-58
2021/10/11 06:11:46;;;;;;;2.40;1.50;;;21.40;51.90;;;;;;4978788;28;20050;-57
2021/10/11 06:14:12;;;;;;;2.22;1.55;;;21.50;51.70;;;;;;4982928;28;20080;-54
2021/10/11 06:16:37;;;;;;;2.63;1.60;;;21.60;51.50;;;;;;4985482;28;20045;-50
2021/10/11 06:19:03;;;;;;;2.58;1.58;;;21.70;51.30;;;;;;4989019;28;20125;-55
2021/10/11 06:21:29;;;;;;;2.60;1.65;;;21.70;51.20;;;;;;4983595;28;20027;-57
2021/10/11 06:23:55;;;;;;;2.05;1.45;;;21.80;50.90;;;;;;5003661;28;20121;-57
2021/10/11 06:26:21;;;;;;;1.70;1.27;;;21.80;50.80;;;;;;4992327;28;20073;-58
2021/10/11 06:28:47;;;;;;;2.08;1.35;;;21.80;50.80;;;;;;4993216;28;20038;-51
2021/10/11 06:31:13;;;;;;;1.80;1.30;;;21.80;51.00;;;;;;4998948;28;20120;-59
2021/10/11 06:33:38;;;;;;;1.83;1.25;;;21.80;51.10;;;;;;4987062;28;20038;-58
2021/10/11 06:36:04;;;;;;;2.05;1.50;;;21.80;51.10;;;;;;4980308;28;20069;-54
2021/10/11 06:38:30;;;;;;;1.60;1.20;;;21.70;51.20;;;;;;4990250;28;20054;-54
2021/10/11 06:40:55;;;;;;;2.65;1.30;;;21.80;51.30;;;;;;4991433;28;20106;-58
2021/10/11 06:43:21;;;;;;;2.72;1.50;;;21.80;51.30;;;;;;4994312;28;20041;-55
2021/10/11 06:45:47;;;;;;;1.73;1.20;;;21.90;51.00;;;;;;4996302;28;20102;-58
2021/10/11 06:48:12;;;;;;;1.70;1.25;;;21.90;50.90;;;;;;4985024;28;20597;-55
2021/10/11 06:50:38;;;;;;;1.80;1.10;;;21.90;51.10;;;;;;4991128;28;20041;-49
2021/10/11 06:53:04;;;;;;;2.00;1.30;;;21.90;51.00;;;;;;4987243;28;20027;-53
2021/10/11 06:55:29;;;;;;;1.70;1.20;;;21.90;51.00;;;;;;4992417;28;20034;-57
2021/10/11 06:57:55;;;;;;;2.08;1.20;;;21.90;51.20;;;;;;4990166;28;20036;-58
2021/10/11 07:00:20;;;;;;;1.70;1.20;;;21.90;51.10;;;;;;4982878;28;20148;-57
2021/10/11 07:02:46;;;;;;;1.63;1.20;;;21.90;51.00;;;;;;4975476;28;20121;-55
2021/10/11 07:05:12;;;;;;;1.77;1.23;;;21.90;51.00;;;;;;4982583;28;20030;-52
2021/10/11 07:07:39;;;;;;;1.80;1.23;;;21.90;51.20;;;;;;4986711;28;20091;-50
2021/10/11 07:10:06;;;;;;;1.73;1.20;;;21.90;51.30;;;;;;4984134;28;20196;-53
2021/10/11 07:12:32;;;;;;;1.35;1.10;;;21.90;51.00;;;;;;4996389;28;20030;-55
2021/10/11 07:14:57;;;;;;;1.92;1.30;;;21.90;51.00;;;;;;4985941;28;20742;-58
2021/10/11 07:17:23;;;;;;;1.92;1.30;;;21.90;51.20;;;;;;4989969;28;20032;-56
2021/10/11 07:19:48;;;;;;;2.03;1.33;;;21.90;51.20;;;;;;4985786;28;20056;-56
2021/10/11 07:22:15;;;;;;;2.70;1.40;;;21.90;51.20;;;;;;4991644;28;20037;-54
2021/10/11 07:24:42;;;;;;;1.75;1.40;;;21.90;51.20;;;;;;4989870;28;20071;-58
2021/10/11 07:27:08;;;;;;;2.08;1.30;;;21.90;51.00;;;;;;4984351;28;20165;-49
2021/10/11 07:29:35;;;;;;;2.35;1.30;;;22.00;51.20;;;;;;4986999;28;20163;-57
2021/10/11 07:32:01;;;;;;;2.15;1.30;;;21.90;51.00;;;;;;4994970;28;20102;-58
2021/10/11 07:34:26;;;;;;;2.13;1.25;;;22.00;51.20;;;;;;4992892;28;20029;-57
2021/10/11 07:36:52;;;;;;;2.30;1.52;;;21.90;51.10;;;;;;4987813;28;20038;-52
2021/10/11 07:39:18;;;;;;;1.70;1.27;;;21.90;51.30;;;;;;4985450;28;20043;-54
2021/10/11 07:41:44;;;;;;;2.25;1.30;;;22.00;51.30;;;;;;4985469;28;20022;-53
2021/10/11 07:44:10;;;;;;;1.95;1.30;;;22.00;51.20;;;;;;4986672;28;20113;-55
2021/10/11 07:46:37;;;;;;;1.75;1.30;;;21.90;51.30;;;;;;4990888;28;20668;-56
2021/10/11 07:49:03;;;;;;;2.17;1.50;;;22.00;51.20;;;;;;5002235;28;20041;-54
2021/10/11 07:51:29;;;;;;;1.98;1.30;;;22.00;51.20;;;;;;4981529;28;20038;-52
2021/10/11 07:53:55;;;;;;;2.20;1.30;;;22.00;51.10;;;;;;4988770;28;20026;-49
2021/10/11 07:56:20;;;;;;;2.80;1.40;;;22.00;51.60;;;;;;4986546;28;20045;-55
2021/10/11 07:58:46;;;;;;;3.17;1.48;;;22.00;51.10;;;;;;4988347;28;20125;-58
2021/10/11 08:01:12;;;;;;;1.88;1.20;;;22.00;51.10;;;;;;4981332;28;20050;-53
2021/10/11 08:03:37;;;;;;;2.33;1.30;;;22.00;51.30;;;;;;4983984;28;20165;-55
2021/10/11 08:06:07;;;;;;;2.13;1.30;;;22.00;51.20;;;;;;4979838;28;20057;-54
2021/10/11 08:08:34;;;;;;;2.00;1.30;;;22.00;51.20;;;;;;4986466;28;20030;-57
2021/10/11 08:11:01;;;;;;;2.95;1.60;;;22.00;51.10;;;;;;4989541;28;20038;-58
2021/10/11 08:13:27;;;;;;;2.10;1.40;;;22.00;51.10;;;;;;4989278;28;20382;-56
2021/10/11 08:15:54;;;;;;;2.33;1.42;;;22.00;51.10;;;;;;4988718;28;20621;-58
2021/10/11 08:18:20;;;;;;;1.73;1.23;;;22.00;51.10;;;;;;4988402;28;20083;-50
2021/10/11 08:20:46;;;;;;;1.98;1.38;;;22.00;51.10;;;;;;4984141;28;20520;-55
2021/10/11 08:23:12;;;;;;;3.35;1.40;;;22.00;51.00;;;;;;4988241;28;20034;-54
2021/10/11 08:25:38;;;;;;;1.92;1.50;;;22.00;51.00;;;;;;4984746;28;20154;-56
2021/10/11 08:28:04;;;;;;;3.35;1.38;;;22.00;51.60;;;;;;4983224;28;20102;-56
2021/10/11 08:30:30;;;;;;;2.30;1.60;;;22.00;51.00;;;;;;4984515;28;20015;-52
2021/10/11 08:32:56;;;;;;;2.38;1.50;;;22.00;51.10;;;;;;4989255;28;20390;-51
2021/10/11 08:35:22;;;;;;;2.30;1.40;;;22.10;51.10;;;;;;4990762;28;20030;-56
2021/10/11 08:37:47;;;;;;;2.90;1.70;;;22.00;51.10;;;;;;4996199;28;20090;-55
2021/10/11 08:40:13;;;;;;;2.20;1.60;;;22.00;51.10;;;;;;4994747;28;20034;-56
2021/10/11 08:42:40;;;;;;;2.83;1.60;;;22.10;51.10;;;;;;4992071;28;20047;-55
2021/10/11 08:45:07;;;;;;;2.40;1.50;;;22.00;51.00;;;;;;4998597;28;20048;-56
2021/10/11 08:47:33;;;;;;;2.20;1.60;;;22.00;51.00;;;;;;4998409;28;20109;-55
2021/10/11 08:49:59;;;;;;;2.45;1.55;;;22.10;51.10;;;;;;4988674;28;20058;-57
2021/10/11 08:52:24;;;;;;;3.35;1.40;;;22.00;51.00;;;;;;4994216;28;20069;-56
2021/10/11 08:54:52;;;;;;;2.60;1.50;;;22.10;51.10;;;;;;4992082;28;20030;-51
2021/10/11 08:57:29;;;;;;;2.50;1.40;;;22.00;51.00;;;;;;4992612;28;20030;-57
2021/10/11 09:00:13;;;;;;;2.45;1.52;;;22.00;51.00;;;;;;4989388;28;20027;-57
2021/10/11 09:02:54;;;;;;;2.20;1.50;;;22.10;51.10;;;;;;4974771;28;20462;-58
2021/10/11 09:05:34;;;;;;;2.03;1.50;;;22.10;51.10;;;;;;4981742;28;20022;-51
2021/10/11 09:08:15;;;;;;;2.03;1.40;;;22.10;51.00;;;;;;4989057;28;20045;-55
2021/10/11 09:10:53;;;;;;;2.03;1.50;;;22.00;51.00;;;;;;4992434;28;20053;-54
2021/10/11 09:13:29;;;;;;;2.43;1.60;;;22.00;51.00;;;;;;4989029;28;20102;-58
2021/10/11 09:16:04;;;;;;;2.10;1.60;;;22.10;51.10;;;;;;4990472;28;20270;-56
2021/10/11 09:18:30;;;;;;;1.85;1.40;;;22.10;51.10;;;;;;4991758;28;20134;-56
2021/10/11 09:20:57;;;;;;;3.15;1.55;;;22.10;51.10;;;;;;4989307;28;20046;-58
2021/10/11 09:23:23;;;;;;;2.30;1.50;;;22.10;51.10;;;;;;4994944;28;20090;-58
2021/10/11 09:25:50;;;;;;;2.22;1.70;;;22.10;51.10;;;;;;4990246;28;20811;-59
2021/10/11 09:28:19;;;;;;;1.90;1.50;;;22.10;51.10;;;;;;4992036;28;20042;-57
2021/10/11 09:30:48;;;;;;;2.55;1.50;;;22.10;51.10;;;;;;4989569;28;20030;-56
2021/10/11 09:33:17;;;;;;;2.40;1.40;;;22.10;51.10;;;;;;4993248;28;20336;-51
2021/10/11 09:35:44;;;;;;;2.28;1.60;;;22.10;51.00;;;;;;4997132;28;20037;-55
2021/10/11 09:38:20;;;;;;;2.15;1.60;;;22.10;51.10;;;;;;4989942;28;20467;-57
2021/10/11 09:40:47;;;;;;;2.80;1.60;;;22.10;51.10;;;;;;4987278;28;20049;-49
2021/10/11 09:43:16;;;;;;;2.35;1.55;;;22.10;51.10;;;;;;4985320;28;20038;-52
2021/10/11 09:45:42;;;;;;;2.30;1.50;;;22.10;51.10;;;;;;4981761;28;20041;-54
2021/10/11 09:48:08;;;;;;;2.42;1.52;;;22.10;51.10;;;;;;4976697;28;20026;-56
2021/10/11 09:50:35;;;;;;;2.65;1.60;;;22.10;51.10;;;;;;4981514;28;20793;-57
2021/10/11 09:53:02;;;;;;;2.67;1.70;;;22.10;51.10;;;;;;4989282;28;20026;-55
2021/10/11 09:55:28;;;;;;;2.40;1.60;;;22.10;50.90;;;;;;4984531;28;20496;-57
2021/10/11 09:57:55;;;;;;;2.58;1.70;;;22.10;50.90;;;;;;4991974;28;20034;-56
2021/10/11 10:00:21;;;;;;;2.55;1.55;;;22.10;50.80;;;;;;4974920;28;20140;-57
2021/10/11 10:02:47;;;;;;;3.30;1.88;;;22.10;50.80;;;;;;4972621;28;20438;-59
2021/10/11 10:05:32;;;;;;;2.70;1.52;;;22.10;50.80;;;;;;4991893;28;20372;-56
2021/10/11 10:08:04;;;;;;;2.22;1.65;;;22.20;50.90;;;;;;4972638;28;20031;-54
2021/10/11 10:10:31;;;;;;;2.17;1.45;;;22.20;50.90;;;;;;4980391;28;20106;-57
2021/10/11 10:12:57;;;;;;;2.20;1.50;;;22.20;51.00;;;;;;4988339;28;20072;-59
2021/10/11 10:15:35;;;;;;;3.72;1.60;;;22.20;50.90;;;;;;4984083;28;20023;-58
2021/10/11 10:18:06;;;;;;;2.63;1.70;;;22.10;51.00;;;;;;4980105;28;20045;-58
2021/10/11 10:20:34;;;;;;;2.15;1.55;;;22.10;51.00;;;;;;4987177;28;20268;-57
2021/10/11 10:23:00;;;;;;;2.13;1.60;;;22.10;51.00;;;;;;4984039;28;20030;-57
2021/10/11 10:25:26;;;;;;;2.60;1.80;;;22.10;51.10;;;;;;4984808;28;20065;-57
2021/10/11 10:28:03;;;;;;;2.50;1.60;;;22.10;51.10;;;;;;4986536;28;20033;-57
2021/10/11 10:30:29;;;;;;;2.40;1.60;;;22.00;51.00;;;;;;4988817;28;20057;-55
2021/10/11 10:33:04;;;;;;;3.50;1.60;;;22.10;51.10;;;;;;4984413;28;20080;-56
2021/10/11 10:35:33;;;;;;;2.50;1.80;;;22.10;51.10;;;;;;4976671;28;20051;-58
2021/10/11 10:37:59;;;;;;;5.22;1.95;;;22.10;51.10;;;;;;4978769;28;20077;-50
2021/10/11 10:40:27;;;;;;;2.13;1.60;;;22.10;51.10;;;;;;4976806;28;20052;-57
2021/10/11 10:43:09;;;;;;;2.25;1.50;;;22.10;51.40;;;;;;4984645;28;20042;-56
2021/10/11 10:45:36;;;;;;;2.05;1.50;;;22.10;51.30;;;;;;4980561;28;20478;-58
2021/10/11 10:48:04;;;;;;;1.98;1.55;;;22.10;51.20;;;;;;4982728;28;20113;-52
2021/10/11 10:50:32;;;;;;;2.28;1.55;;;22.10;50.90;;;;;;4984153;28;20022;-57
2021/10/11 10:53:00;;;;;;;1.97;1.37;;;22.10;51.00;;;;;;4981843;28;20031;-51
2021/10/11 10:55:26;;;;;;;2.08;1.45;;;22.10;51.00;;;;;;4975846;28;20277;-53
2021/10/11 10:58:00;;;;;;;2.90;1.60;;;22.10;51.00;;;;;;4974839;28;20022;-57
2021/10/11 11:00:26;;;;;;;1.73;1.35;;;22.20;51.00;;;;;;4975872;28;20421;-56
2021/10/11 11:02:52;;;;;;;3.45;1.63;;;22.20;51.50;;;;;;4979491;28;20039;-59
2021/10/11 11:05:20;;;;;;;2.53;1.70;;;22.20;51.50;;;;;;4979615;28;20030;-56
2021/10/11 11:07:48;;;;;;;2.13;1.50;;;22.20;51.00;;;;;;4980713;28;20614;-59
2021/10/11 11:10:23;;;;;;;2.33;1.50;;;22.20;50.90;;;;;;4987257;28;20049;-58
2021/10/11 11:13:06;;;;;;;2.00;1.42;;;22.20;50.90;;;;;;4981533;28;20030;-55
2021/10/11 11:15:38;;;;;;;2.15;1.30;;;22.20;51.00;;;;;;4991609;28;20022;-57
2021/10/11 11:18:15;;;;;;;2.72;1.70;;;22.20;51.00;;;;;;4982733;28;20062;-58
2021/10/11 11:20:43;;;;;;;3.08;2.00;;;22.20;50.70;;;;;;4979489;28;20061;-58
2021/10/11 11:23:16;;;;;;;2.50;1.77;;;22.20;50.80;;;;;;4988046;28;20045;-57
2021/10/11 11:25:46;;;;;;;2.53;1.60;;;22.30;50.90;;;;;;4992712;28;20430;-57
2021/10/11 11:28:18;;;;;;;2.75;1.80;;;22.30;51.00;;;;;;4992013;28;20027;-55
2021/10/11 11:30:46;;;;;;;2.40;1.60;;;22.30;50.80;;;;;;4992399;28;20031;-58
2021/10/11 11:33:15;;;;;;;2.30;1.60;;;22.30;50.90;;;;;;4995122;28;20481;-57
2021/10/11 11:36:06;;;;;;;2.33;1.65;;;22.20;50.80;;;;;;4987045;28;20117;-57
2021/10/11 11:38:38;;;;;;;2.30;1.60;;;22.20;51.00;;;;;;4988364;28;20466;-57
2021/10/11 11:41:05;;;;;;;2.30;1.63;;;22.30;51.00;;;;;;4996427;28;20121;-60
2021/10/11 11:43:35;;;;;;;2.80;1.98;;;22.40;51.10;;;;;;4978385;28;20026;-59
2021/10/11 11:46:01;;;;;;;2.92;2.00;;;22.50;50.90;;;;;;4985280;28;20413;-59
2021/10/11 11:48:32;;;;;;;2.72;1.73;;;22.60;50.70;;;;;;4981879;28;20026;-52
2021/10/11 11:51:01;;;;;;;2.38;1.63;;;22.70;50.90;;;;;;5000215;28;20033;-59
2021/10/11 11:53:29;;;;;;;2.17;1.55;;;22.70;50.30;;;;;;4986566;28;20026;-59
2021/10/11 11:55:56;;;;;;;2.88;1.50;;;22.70;50.30;;;;;;4993948;28;20890;-55
2021/10/11 11:58:30;;;;;;;2.85;1.77;;;22.70;50.30;;;;;;4990979;28;20034;-57
2021/10/11 12:01:09;;;;;;;2.88;1.60;;;22.60;50.30;;;;;;4983037;28;20038;-57
2021/10/11 12:03:43;;;;;;;2.40;1.60;;;22.60;50.30;;;;;;4982133;28;20042;-54
2021/10/11 12:06:09;;;;;;;2.67;1.80;;;22.60;50.30;;;;;;4979188;28;20060;-57
2021/10/11 12:08:35;;;;;;;3.17;1.80;;;22.60;50.30;;;;;;4975815;28;20031;-55
2021/10/11 12:11:03;;;;;;;2.33;1.77;;;22.70;50.50;;;;;;4989696;28;20101;-59
2021/10/11 12:13:32;;;;;;;2.83;1.90;;;22.70;50.40;;;;;;4981393;28;20658;-52
2021/10/11 12:16:12;;;;;;;2.35;1.65;;;22.80;50.80;;;;;;4979891;28;20038;-58
2021/10/11 12:18:42;;;;;;;2.00;1.60;;;22.90;50.30;;;;;;4978482;28;20270;-57
2021/10/11 12:21:26;;;;;;;2.70;1.80;;;22.90;50.20;;;;;;4989189;28;20054;-51
2021/10/11 12:23:53;;;;;;;2.67;1.70;;;23.00;50.00;;;;;;4980518;28;20030;-56
2021/10/11 12:26:21;;;;;;;2.10;1.40;;;23.10;49.90;;;;;;4989888;28;20039;-58
2021/10/11 12:29:10;;;;;;;2.47;1.50;;;23.10;49.70;;;;;;4980439;28;20043;-57
2021/10/11 12:31:36;;;;;;;2.30;1.52;;;23.10;49.60;;;;;;4974182;28;20293;-55
2021/10/11 12:34:11;;;;;;;2.25;1.50;;;23.10;49.60;;;;;;4994552;28;20527;-56
2021/10/11 12:36:47;;;;;;;2.67;1.70;;;23.10;49.60;;;;;;4994964;28;20030;-59
2021/10/11 12:39:12;;;;;;;2.30;1.50;;;23.10;49.60;;;;;;4992325;28;20528;-58
2021/10/11 12:41:42;;;;;;;2.65;1.58;;;23.10;49.70;;;;;;4984045;28;20101;-58
2021/10/11 12:44:08;;;;;;;1.90;1.50;;;23.10;49.70;;;;;;4991253;28;20062;-54
2021/10/11 12:46:45;;;;;;;2.60;1.55;;;23.10;49.70;;;;;;4976455;28;20035;-52
2021/10/11 12:49:11;;;;;;;2.75;1.50;;;23.10;49.80;;;;;;4983549;28;20039;-58